Time;durP1;ratioP1;P1;durP2;ratioP2;P2;SDS_P1;SDS_P2;PMS_P1;PMS_P2;Temp;Humidity;BMP_temperature;BMP_pressure;BME280_temperature;BME280_humidity;BME280_pressure;Samples;Min_cycle;Max_cycle;Signal;HPM_P1;HPM_P2
2022/10/11 00:01:25;;;;;;;24.52;4.63;;;;;;;9.45;87.52;101957.03;5027236;28;20065;-54
2022/10/11 00:03:52;;;;;;;22.13;4.75;;;;;;;9.47;88.02;101952.44;5034410;28;20052;-53
2022/10/11 00:06:19;;;;;;;20.17;5.07;;;;;;;9.41;88.21;101958.22;5033168;28;20176;-54
2022/10/11 00:08:45;;;;;;;19.10;5.05;;;;;;;9.39;88.62;101968.09;5030139;28;20041;-54
2022/10/11 00:11:12;;;;;;;23.30;4.88;;;;;;;9.43;88.76;101966.91;5034762;28;20050;-54
2022/10/11 00:13:39;;;;;;;22.15;5.28;;;;;;;9.41;88.87;101974.13;5029050;28;20045;-54
2022/10/11 00:16:10;;;;;;;22.08;4.82;;;;;;;9.40;88.90;101969.75;5034570;28;20049;-54
2022/10/11 00:18:37;;;;;;;19.30;5.07;;;;;;;9.37;88.75;101970.03;5026512;28;20049;-54
2022/10/11 00:21:19;;;;;;;21.80;5.35;;;;;;;9.34;88.48;101970.25;5110053;27;20376;-53
2022/10/11 00:23:57;;;;;;;18.58;4.88;;;;;;;9.32;88.54;101974.81;5105031;27;20378;-54
2022/10/11 00:26:35;;;;;;;26.77;5.57;;;;;;;9.29;89.13;101975.03;5110424;27;20384;-54
2022/10/11 00:29:13;;;;;;;22.10;5.70;;;;;;;9.31;88.15;101976.59;5105236;27;20709;-53
2022/10/11 00:31:51;;;;;;;25.85;5.97;;;;;;;9.32;87.17;101983.59;5110400;27;20705;-54
2022/10/11 00:34:29;;;;;;;18.45;5.38;;;;;;;9.29;86.91;101978.50;5101874;27;20380;-52
2022/10/11 00:37:08;;;;;;;26.33;5.70;;;;;;;9.34;86.77;101984.31;5111012;27;20358;-53
2022/10/11 00:39:46;;;;;;;24.85;6.05;;;;;;;9.23;87.44;101981.63;5105850;27;20354;-52
2022/10/11 00:42:25;;;;;;;23.73;7.53;;;;;;;9.19;87.80;101988.13;5109387;27;20347;-54
2022/10/11 00:48:08;;;;;;;25.83;6.97;;;;;;;9.13;88.77;101986.78;5110487;27;20362;-54
2022/10/11 00:50:46;;;;;;;25.38;8.10;;;;;;;9.17;87.93;101980.28;5040358;27;20343;-54
2022/10/11 00:53:32;;;;;;;25.40;7.90;;;;;;;9.09;88.06;101984.47;5130553;27;20601;-54
2022/10/11 00:56:19;;;;;;;28.88;6.85;;;;;;;9.09;88.68;101992.41;5105601;27;20358;-54
2022/10/11 00:59:01;;;;;;;25.92;7.72;;;;;;;9.01;88.66;101992.97;5109635;27;20380;-53
2022/10/11 01:01:38;;;;;;;26.20;8.13;;;;;;;8.99;89.05;101994.91;5066034;28;20707;-53
2022/10/11 01:04:17;;;;;;;25.70;8.57;;;;;;;8.95;89.64;101991.63;5109912;27;20855;-54
2022/10/11 01:06:56;;;;;;;25.70;8.70;;;;;;;8.99;89.48;101993.09;5101518;27;21079;-54
2022/10/11 01:09:35;;;;;;;27.60;10.70;;;;;;;9.00;89.40;101996.56;5110387;27;20351;-54
2022/10/11 01:12:20;;;;;;;36.83;11.45;;;;;;;8.92;89.58;102002.44;5105332;27;20358;-54
2022/10/11 01:17:55;;;;;;;32.95;10.82;;;;;;;8.95;89.46;101999.56;5105632;27;20380;-55
2022/10/11 01:23:38;;;;;;;29.05;10.98;;;;;;;8.96;89.45;101995.13;5102705;27;20351;-54
2022/10/11 01:26:49;;;;;;;31.33;11.15;;;;;;;8.98;90.30;101998.50;5109450;27;20347;-54
2022/10/11 01:29:55;;;;;;;35.38;10.93;;;;;;;8.93;90.52;102000.63;5126754;27;20398;-53
2022/10/11 01:32:57;;;;;;;26.25;10.05;;;;;;;8.76;91.19;102007.16;5109490;27;20871;-54
2022/10/11 01:35:44;;;;;;;27.45;10.00;;;;;;;8.77;91.51;102011.50;5110545;27;20365;-54
2022/10/11 01:38:30;;;;;;;29.10;9.68;;;;;;;8.86;90.59;102002.03;5103185;27;20347;-54
2022/10/11 01:41:20;;;;;;;29.38;9.18;;;;;;;8.79;91.40;102006.94;5069564;28;20346;-53
2022/10/11 01:44:01;;;;;;;29.88;9.50;;;;;;;8.82;91.86;102010.22;5105330;27;20496;-53
2022/10/11 01:46:39;;;;;;;31.15;9.45;;;;;;;8.89;91.37;102012.41;5070154;28;20877;-54
2022/10/11 01:49:18;;;;;;;27.13;9.02;;;;;;;8.88;90.11;102008.91;5105357;27;20353;-53
2022/10/11 01:52:02;;;;;;;33.72;8.80;;;;;;;8.93;89.13;102005.91;4983672;27;20905;-54
2022/10/11 01:55:06;;;;;;;31.10;9.93;;;;;;;8.92;88.80;102010.38;5102245;27;20652;-53
2022/10/11 01:58:12;;;;;;;35.22;9.05;;;;;;;8.83;88.79;102014.53;5110626;27;20132;-53
2022/10/11 02:01:06;;;;;;;25.30;9.82;;;;;;;8.73;90.07;102015.31;5064857;28;20368;-54
2022/10/11 02:03:54;;;;;;;26.73;8.70;;;;;;;8.64;90.83;102014.16;5089261;28;20363;-54
2022/10/11 02:06:45;;;;;;;28.63;9.15;;;;;;;8.55;90.49;102014.81;5105951;27;20354;-53
2022/10/11 02:09:46;;;;;;;23.98;9.20;;;;;;;8.60;89.63;101999.47;5109451;27;20347;-53
2022/10/11 02:12:47;;;;;;;26.27;9.10;;;;;;;8.56;89.17;102006.78;5106804;27;20700;-54
2022/10/11 02:15:30;;;;;;;30.90;8.95;;;;;;;8.53;89.69;102011.44;5110891;27;20358;-53
2022/10/11 02:18:17;;;;;;;25.33;8.70;;;;;;;8.43;90.46;102006.81;5104886;27;20366;-54
2022/10/11 02:20:59;;;;;;;27.70;8.77;;;;;;;8.60;89.12;102015.34;5117957;27;20445;-53
2022/10/11 02:23:44;;;;;;;30.10;8.93;;;;;;;8.53;88.73;102017.59;5125917;27;20398;-53
2022/10/11 02:26:23;;;;;;;26.33;8.77;;;;;;;8.50;89.38;102015.16;5069199;28;20360;-54
2022/10/11 02:29:06;;;;;;;29.65;8.82;;;;;;;8.42;89.85;102021.00;5102567;27;20358;-54
2022/10/11 02:31:45;;;;;;;33.17;9.25;;;;;;;8.37;89.44;102020.47;5069471;28;20352;-54
2022/10/11 02:34:26;;;;;;;27.52;9.32;;;;;;;8.35;89.62;102027.66;5105646;27;20358;-53
2022/10/11 02:37:20;;;;;;;31.83;8.68;;;;;;;8.30;90.56;102021.84;5110251;27;20700;-53
2022/10/11 02:40:20;;;;;;;31.95;8.23;;;;;;;8.33;90.65;102033.97;5108694;27;1161500;-53
2022/10/11 02:43:09;;;;;;;36.45;8.52;;;;;;;8.33;90.29;102032.22;5110599;27;20351;-54
2022/10/11 02:45:55;;;;;;;33.10;8.90;;;;;;;8.36;89.96;102031.97;5061274;28;20348;-53
2022/10/11 02:48:34;;;;;;;29.25;9.70;;;;;;;8.34;90.42;102031.25;5110394;27;20387;-54
2022/10/11 02:51:13;;;;;;;28.67;7.95;;;;;;;8.35;90.12;102045.28;4980937;27;20893;-53
2022/10/11 02:53:50;;;;;;;27.40;8.73;;;;;;;8.38;89.06;102038.00;5109112;27;20358;-54
2022/10/11 02:56:28;;;;;;;26.13;8.23;;;;;;;8.36;89.48;102042.56;5105941;27;20355;-53
2022/10/11 02:59:06;;;;;;;26.80;8.00;;;;;;;8.28;89.75;102044.91;5110517;27;20351;-53
2022/10/11 03:01:45;;;;;;;27.00;8.52;;;;;;;8.34;89.73;102044.47;5101725;27;20748;-54
2022/10/11 03:04:23;;;;;;;42.60;8.75;;;;;;;8.32;89.30;102046.38;5110272;27;20358;-53
2022/10/11 03:07:02;;;;;;;24.67;8.05;;;;;;;8.34;89.54;102047.09;5126469;27;20382;-53
2022/10/11 03:09:40;;;;;;;31.17;8.80;;;;;;;8.25;89.76;102050.41;5068804;28;20711;-53
2022/10/11 03:12:18;;;;;;;25.23;8.82;;;;;;;8.23;89.56;102053.13;5106342;27;20137;-53
2022/10/11 03:14:56;;;;;;;25.10;8.05;;;;;;;8.24;89.41;102059.25;5110550;27;20351;-52
2022/10/11 03:17:34;;;;;;;25.85;8.07;;;;;;;8.14;90.09;102060.88;5101705;27;20716;-53
2022/10/11 03:20:13;;;;;;;25.23;8.45;;;;;;;8.15;89.30;102057.25;5122944;27;20174;-54
2022/10/11 03:22:50;;;;;;;27.92;8.73;;;;;;;8.19;89.63;102067.53;5065527;28;20913;-54
2022/10/11 03:25:28;;;;;;;28.77;8.18;;;;;;;8.08;90.02;102073.56;5110377;27;20848;-54
2022/10/11 03:28:07;;;;;;;28.23;7.43;;;;;;;8.11;89.63;102066.34;5064770;28;20637;-54
2022/10/11 03:30:50;;;;;;;35.97;8.18;;;;;;;8.04;90.28;102069.44;5110283;27;20870;-53
2022/10/11 03:33:28;;;;;;;30.92;7.20;;;;;;;8.03;90.13;102070.38;5102161;27;20366;-53
2022/10/11 03:36:07;;;;;;;28.08;8.20;;;;;;;8.06;89.71;102067.53;5069286;28;20390;-54
2022/10/11 03:38:45;;;;;;;23.60;8.27;;;;;;;7.97;89.85;102072.59;5126735;27;20395;-53
2022/10/11 03:41:22;;;;;;;27.17;9.05;;;;;;;7.92;90.00;102072.06;5070427;28;20353;-53
2022/10/11 03:44:01;;;;;;;22.02;8.13;;;;;;;8.10;88.42;102083.19;5105251;27;20351;-53
2022/10/11 03:46:39;;;;;;;24.25;7.57;;;;;;;8.12;88.66;102078.63;5110490;27;20362;-53
2022/10/11 03:49:17;;;;;;;28.98;8.07;;;;;;;8.09;88.17;102074.38;5065438;28;20383;-53
2022/10/11 03:51:55;;;;;;;24.60;7.75;;;;;;;8.04;88.56;102079.13;4954233;28;20368;-53
2022/10/11 03:54:33;;;;;;;26.75;8.23;;;;;;;8.04;89.39;102082.66;5109504;27;20374;-53
2022/10/11 03:57:12;;;;;;;24.55;7.90;;;;;;;8.05;89.04;102083.50;5088689;27;20360;-54
2022/10/11 03:59:50;;;;;;;24.17;8.10;;;;;;;8.05;89.68;102079.03;5106793;27;20701;-54
2022/10/11 04:02:28;;;;;;;26.35;7.70;;;;;;;7.93;89.74;102079.91;5110063;27;20377;-53
2022/10/11 04:05:07;;;;;;;25.98;8.23;;;;;;;7.91;90.00;102081.78;5065043;28;20360;-54
2022/10/11 04:07:45;;;;;;;27.42;7.72;;;;;;;7.89;89.47;102075.75;5106222;27;20840;-53
2022/10/11 04:10:23;;;;;;;19.25;7.80;;;;;;;7.87;89.80;102085.56;5109435;27;20370;-54
2022/10/11 04:13:01;;;;;;;19.40;8.00;;;;;;;7.89;90.14;102081.03;5106249;27;20776;-52
2022/10/11 04:15:40;;;;;;;24.88;8.02;;;;;;;7.92;90.11;102087.91;5110085;27;20355;-53
2022/10/11 04:18:18;;;;;;;31.77;7.85;;;;;;;7.93;89.46;102097.53;5125928;27;20390;-56
2022/10/11 04:20:56;;;;;;;22.80;7.35;;;;;;;7.97;88.25;102096.41;5110522;27;20351;-54
2022/10/11 04:23:34;;;;;;;25.75;7.85;;;;;;;7.95;88.43;102092.97;5122469;27;20128;-54
2022/10/11 04:26:12;;;;;;;28.55;7.45;;;;;;;7.92;88.28;102098.50;5110403;27;20358;-53
2022/10/11 04:28:50;;;;;;;25.55;7.90;;;;;;;7.93;88.60;102110.75;5064649;28;20368;-53
2022/10/11 04:31:29;;;;;;;25.67;5.90;;;;;;;7.85;88.69;102104.16;5109883;27;20391;-53
2022/10/11 04:34:07;;;;;;;21.67;6.40;;;;;;;7.83;88.98;102108.72;5106224;27;20354;-53
2022/10/11 04:36:45;;;;;;;22.67;6.50;;;;;;;7.82;89.08;102109.69;5109756;27;20354;-53
2022/10/11 04:39:25;;;;;;;25.10;6.75;;;;;;;7.94;88.30;102102.72;5101840;27;20347;-53
2022/10/11 04:42:03;;;;;;;18.50;6.00;;;;;;;7.83;88.29;102106.06;5110609;27;20351;-54
2022/10/11 04:44:41;;;;;;;18.38;6.28;;;;;;;7.72;88.76;102111.22;5105320;27;20354;-52
2022/10/11 04:47:19;;;;;;;22.85;6.90;;;;;;;7.70;89.00;102107.84;5069802;28;20364;-52
2022/10/11 04:49:57;;;;;;;22.05;6.25;;;;;;;7.63;90.24;102115.31;5065720;28;20360;-53
2022/10/11 04:52:36;;;;;;;22.65;6.45;;;;;;;7.67;89.56;102121.25;4995734;27;20359;-52
2022/10/11 04:55:14;;;;;;;22.63;6.43;;;;;;;7.73;89.50;102120.00;5143438;27;20356;-53
2022/10/11 04:57:52;;;;;;;20.15;6.63;;;;;;;7.63;89.07;102122.41;5072779;27;20744;-54
2022/10/11 05:00:31;;;;;;;26.02;7.38;;;;;;;7.58;89.52;102122.69;5064909;28;20353;-51
2022/10/11 05:03:08;;;;;;;25.77;7.80;;;;;;;7.45;89.78;102127.09;5109554;27;20386;-54
2022/10/11 05:05:48;;;;;;;28.58;8.27;;;;;;;7.46;90.60;102128.81;5105463;27;20351;-52
2022/10/11 05:08:25;;;;;;;31.23;9.18;;;;;;;7.44;91.54;102126.25;5109419;27;20374;-52
2022/10/11 05:11:07;;;;;;;37.15;10.32;;;;;;;7.61;91.19;102132.22;5102702;27;20346;-53
2022/10/11 05:13:45;;;;;;;32.72;9.95;;;;;;;7.58;91.28;102127.97;5109568;27;20350;-52
2022/10/11 05:16:23;;;;;;;31.67;10.27;;;;;;;7.59;91.26;102137.63;5106026;27;20383;-52
2022/10/11 05:19:02;;;;;;;33.97;10.05;;;;;;;7.66;90.40;102135.41;5130890;27;20124;-52
2022/10/11 05:21:39;;;;;;;34.47;11.38;;;;;;;7.57;91.17;102133.38;5063839;28;20357;-52
2022/10/11 05:24:17;;;;;;;37.83;11.90;;;;;;;7.62;91.22;102128.63;5110627;27;20347;-52
2022/10/11 05:26:55;;;;;;;49.70;12.13;;;;;;;7.64;91.38;102132.88;5102614;27;20804;-50
2022/10/11 05:29:35;;;;;;;30.50;11.57;;;;;;;7.68;92.05;102141.44;5109213;27;20562;-54
2022/10/11 05:32:13;;;;;;;49.33;11.30;;;;;;;7.69;92.62;102141.34;5105954;27;20358;-52
2022/10/11 05:34:52;;;;;;;37.22;12.10;;;;;;;7.61;92.52;102148.91;5110366;27;20358;-53
2022/10/11 05:37:30;;;;;;;39.22;11.60;;;;;;;7.71;93.32;102150.94;5125533;27;20365;-53
2022/10/11 05:40:09;;;;;;;37.17;11.85;;;;;;;7.71;93.02;102156.25;5070002;28;20364;-53
2022/10/11 05:42:48;;;;;;;42.58;12.70;;;;;;;7.73;93.38;102159.63;5102289;27;20705;-52
2022/10/11 05:45:26;;;;;;;37.30;11.13;;;;;;;7.70;93.21;102150.13;5110146;27;20874;-52
2022/10/11 05:48:05;;;;;;;60.10;11.88;;;;;;;7.75;93.15;102149.78;5064873;28;20494;-53
2022/10/11 05:50:42;;;;;;;37.95;13.55;;;;;;;7.72;93.55;102155.31;5109959;27;20358;-53
2022/10/11 05:53:26;;;;;;;39.88;11.82;;;;;;;7.72;93.90;102155.31;5107198;27;20129;-52
2022/10/11 05:56:18;;;;;;;31.17;12.07;;;;;;;7.79;93.46;102165.34;5089530;28;20566;-52
2022/10/11 05:58:55;;;;;;;35.38;12.30;;;;;;;7.84;92.60;102165.91;5122557;27;20173;-54
2022/10/11 06:01:36;;;;;;;41.83;12.27;;;;;;;7.80;93.41;102177.59;5110444;27;20362;-54
2022/10/11 06:04:17;;;;;;;35.50;12.23;;;;;;;7.82;93.50;102170.44;5104366;27;20347;-54
2022/10/11 06:06:56;;;;;;;39.95;12.95;;;;;;;7.81;93.96;102178.47;5110120;27;20354;-53
2022/10/11 06:09:34;;;;;;;33.47;11.98;;;;;;;7.83;93.67;102174.75;5065172;28;20353;-53
2022/10/11 06:12:12;;;;;;;38.25;12.75;;;;;;;7.85;94.14;102175.50;5109470;27;20358;-54
2022/10/11 06:15:05;;;;;;;76.70;14.98;;;;;;;7.83;94.00;102177.41;5099758;27;20438;-54
2022/10/11 06:17:58;;;;;;;48.63;13.00;;;;;;;7.81;94.05;102184.59;5103520;27;20434;-53
2022/10/11 06:20:49;;;;;;;41.28;13.10;;;;;;;7.89;94.22;102186.72;5099136;27;20433;-53
2022/10/11 06:23:41;;;;;;;30.30;13.35;;;;;;;8.03;93.98;102185.81;5144797;27;20326;-51
2022/10/11 06:26:33;;;;;;;30.17;12.98;;;;;;;8.04;93.71;102196.28;5099031;27;20433;-53
2022/10/11 06:29:26;;;;;;;34.58;12.98;;;;;;;8.08;93.70;102184.56;5103280;27;20829;-53
2022/10/11 06:32:18;;;;;;;32.78;12.77;;;;;;;8.17;93.42;102187.56;5095837;27;20437;-54
2022/10/11 06:35:10;;;;;;;32.45;13.90;;;;;;;8.19;92.95;102194.41;5144037;27;20318;-54
2022/10/11 06:38:02;;;;;;;38.30;13.45;;;;;;;8.33;92.86;102193.50;5099319;27;20446;-53
2022/10/11 06:40:54;;;;;;;46.53;13.25;;;;;;;8.22;93.60;102204.78;5095792;27;20455;-55
2022/10/11 06:43:48;;;;;;;32.78;13.35;;;;;;;8.40;92.58;102209.78;5127692;27;20365;-55
2022/10/11 06:46:40;;;;;;;41.70;12.88;;;;;;;8.24;93.60;102208.19;5095573;27;20714;-55
2022/10/11 06:49:32;;;;;;;36.55;13.65;;;;;;;8.17;93.73;102214.00;5098694;27;20433;-55
2022/10/11 06:52:25;;;;;;;29.85;13.18;;;;;;;8.15;94.69;102216.72;4979603;27;20971;-54
2022/10/11 06:55:16;;;;;;;39.80;12.45;;;;;;;7.89;94.94;102221.06;5138874;27;20337;-55
2022/10/11 06:58:08;;;;;;;39.30;12.43;;;;;;;7.83;96.66;102227.59;5109672;27;20445;-54
2022/10/11 07:01:02;;;;;;;34.13;13.10;;;;;;;8.08;95.82;102229.50;5141364;27;20502;-55
2022/10/11 07:03:56;;;;;;;45.60;12.70;;;;;;;7.88;96.16;102232.59;5083822;27;20418;-55
2022/10/11 07:06:48;;;;;;;122.95;12.45;;;;;;;7.48;97.63;102236.00;5096153;27;20447;-55
2022/10/11 07:09:24;;;;;;;63.55;13.32;;;;;;;7.73;98.29;102236.22;4588748;27;15722651;-52
2022/10/11 07:12:15;;;;;;;33.97;13.60;;;;;;;7.98;97.19;102238.97;5095022;27;20411;-50
2022/10/11 07:15:09;;;;;;;45.03;14.75;;;;;;;7.92;97.30;102244.66;5091578;27;20411;-53
2022/10/11 07:18:01;;;;;;;48.47;12.98;;;;;;;8.03;97.56;102243.97;5088124;27;20457;-60
2022/10/11 07:20:52;;;;;;;60.47;13.38;;;;;;;7.81;98.29;102244.53;5126013;27;20354;-50
2022/10/11 07:23:45;;;;;;;33.75;12.68;;;;;;;8.03;98.40;102252.72;5106190;28;20350;-53
2022/10/11 07:26:37;;;;;;;86.95;12.25;;;;;;;7.98;98.78;102260.09;5087315;27;20454;-51
2022/10/11 07:29:29;;;;;;;63.10;12.23;;;;;;;7.94;98.74;102255.97;5100551;27;20450;-52
2022/10/11 07:32:22;;;;;;;47.30;14.18;;;;;;;8.18;98.40;102255.31;5081559;27;20480;-53
2022/10/11 07:35:14;;;;;;;32.78;14.50;;;;;;;8.37;97.92;102263.72;5134880;27;20846;-52
2022/10/11 07:38:07;;;;;;;38.38;17.02;;;;;;;8.35;97.34;102268.28;5087326;27;20456;-52
2022/10/11 07:40:58;;;;;;;87.95;15.07;;;;;;;8.56;96.08;102263.34;5089468;27;20444;-50
2022/10/11 07:43:50;;;;;;;59.90;14.10;;;;;;;8.27;97.03;102265.28;5138083;27;20862;-53
2022/10/11 07:46:42;;;;;;;41.15;14.77;;;;;;;8.44;96.59;102265.03;5097831;27;20919;-53
2022/10/11 07:49:33;;;;;;;38.97;14.02;;;;;;;8.63;96.86;102261.16;5139108;27;20341;-53
2022/10/11 07:52:25;;;;;;;130.15;16.45;;;;;;;8.71;96.12;102265.91;5051533;27;20496;-52
2022/10/11 07:55:17;;;;;;;40.95;14.57;;;;;;;8.62;96.34;102265.59;5135205;27;20862;-52
2022/10/11 07:58:11;;;;;;;80.18;14.30;;;;;;;8.51;96.96;102264.63;5097330;27;20903;-52
2022/10/11 08:01:04;;;;;;;58.55;14.45;;;;;;;8.57;98.02;102266.88;5086502;27;20493;-53
2022/10/11 08:03:57;;;;;;;37.75;15.40;;;;;;;8.57;97.64;102272.16;5095428;27;20457;-53
2022/10/11 08:06:48;;;;;;;33.88;15.05;;;;;;;8.89;96.91;102277.03;5096119;27;20461;-53
2022/10/11 08:09:43;;;;;;;48.50;15.35;;;;;;;8.93;96.60;102282.03;5095272;27;20430;-53
2022/10/11 08:12:34;;;;;;;61.22;16.42;;;;;;;8.89;95.33;102284.97;5137933;27;20706;-53
2022/10/11 08:15:28;;;;;;;38.45;17.05;;;;;;;8.92;93.94;102277.69;5103981;27;20393;-52
2022/10/11 08:18:19;;;;;;;70.07;17.77;;;;;;;8.70;94.92;102280.94;5087819;27;20467;-52
2022/10/11 08:21:13;;;;;;;43.35;17.58;;;;;;;8.84;94.52;102280.88;5140513;27;20324;-53
2022/10/11 08:23:49;;;;;;;61.55;17.48;;;;;;;8.70;94.20;102280.94;4624421;27;15012153;-52
2022/10/11 08:26:41;;;;;;;43.28;18.10;;;;;;;8.77;94.21;102286.69;5095308;27;20849;-54
2022/10/11 08:29:33;;;;;;;44.22;18.73;;;;;;;8.93;94.49;102284.69;5143180;27;20414;-53
2022/10/11 08:32:24;;;;;;;42.40;18.40;;;;;;;8.85;94.56;102294.94;5093457;27;20449;-53
2022/10/11 08:35:16;;;;;;;42.95;19.65;;;;;;;8.74;95.46;102292.19;5134564;27;20349;-52
2022/10/11 08:38:08;;;;;;;47.97;20.83;;;;;;;8.98;95.84;102298.41;5094272;27;20776;-52
2022/10/11 08:41:00;;;;;;;53.00;22.55;;;;;;;9.08;95.91;102296.00;5136968;27;20326;-53
2022/10/11 08:44:02;;;;;;;61.58;23.65;;;;;;;9.10;95.40;102298.56;5102581;27;20445;-53
2022/10/11 08:47:01;;;;;;;58.90;25.00;;;;;;;8.74;96.71;102300.94;5096989;27;20447;-53
2022/10/11 08:49:54;;;;;;;54.15;24.52;;;;;;;8.88;95.95;102297.38;5101265;27;20864;-52
2022/10/11 08:52:52;;;;;;;60.20;26.05;;;;;;;8.99;95.88;102305.41;5049873;27;20485;-53
2022/10/11 08:55:49;;;;;;;57.83;26.52;;;;;;;9.02;95.65;102299.94;5094705;27;20452;-53
2022/10/11 08:58:50;;;;;;;54.83;25.88;;;;;;;9.00;95.74;102298.31;5099933;27;20434;-52
2022/10/11 09:01:48;;;;;;;59.60;25.55;;;;;;;9.12;95.81;102307.22;5092378;27;20772;-52
2022/10/11 09:04:27;;;;;;;53.95;25.60;;;;;;;9.12;96.13;102315.19;5106609;27;20411;-53
2022/10/11 09:07:19;;;;;;;57.67;26.00;;;;;;;9.25;95.48;102307.22;5113236;27;20358;-53
2022/10/11 09:10:25;;;;;;;186.15;115.65;;;;;;;9.31;95.38;102310.28;5111309;27;20751;-54
2022/10/11 09:13:30;;;;;;;67.00;30.40;;;;;;;9.38;94.11;102314.19;5111910;27;20377;-53
2022/10/11 09:16:34;;;;;;;67.10;30.35;;;;;;;9.37;93.38;102303.72;5126874;27;20790;-52
2022/10/11 09:19:44;;;;;;;64.47;28.75;;;;;;;9.53;93.23;102306.13;5055512;28;20365;-53
2022/10/11 09:22:48;;;;;;;67.85;30.83;;;;;;;9.14;94.64;102306.16;5115845;27;20394;-49
2022/10/11 09:25:45;;;;;;;63.25;30.40;;;;;;;9.16;94.92;102306.91;5061239;28;20379;-49
2022/10/11 09:28:50;;;;;;;66.80;29.58;;;;;;;9.48;94.32;102309.09;5121369;27;20375;-50
2022/10/11 09:31:29;;;;;;;62.13;28.95;;;;;;;9.59;94.63;102303.88;5086743;27;20377;-51
2022/10/11 09:34:13;;;;;;;68.43;30.80;;;;;;;9.63;94.59;102308.97;5152760;27;20361;-50
2022/10/11 09:36:45;;;;;;;74.88;32.10;;;;;;;9.72;94.52;102317.09;5144213;27;20042;-52
2022/10/11 09:39:34;;;;;;;79.32;36.17;;;;;;;9.56;93.31;102314.69;5164476;27;20099;-54
2022/10/11 09:42:04;;;;;;;77.40;34.97;;;;;;;9.44;94.64;102310.28;5160698;27;20038;-58
2022/10/11 09:44:44;;;;;;;89.85;35.67;;;;;;;9.73;93.85;102312.63;5137562;27;20420;-58
2022/10/11 09:47:16;;;;;;;80.32;33.22;;;;;;;9.75;93.21;102313.38;5136648;27;20380;-58
2022/10/11 09:49:51;;;;;;;76.35;33.28;;;;;;;9.79;93.24;102317.50;5141014;27;20562;-58
2022/10/11 09:52:21;;;;;;;77.80;34.20;;;;;;;9.82;92.02;102316.44;5117302;27;20035;-57
2022/10/11 09:54:52;;;;;;;79.30;34.75;;;;;;;9.88;92.13;102313.34;5146544;27;20039;-57
2022/10/11 09:57:23;;;;;;;80.07;35.08;;;;;;;9.85;92.17;102313.56;5157271;27;20137;-57
2022/10/11 10:00:26;;;;;;;79.70;34.50;;;;;;;9.96;91.83;102324.25;5143479;27;20084;-58
2022/10/11 10:02:56;;;;;;;82.78;33.85;;;;;;;10.03;91.44;102314.88;5150593;27;20035;-58
2022/10/11 10:05:31;;;;;;;83.20;35.17;;;;;;;10.12;91.64;102324.81;5119371;27;20713;-58
2022/10/11 10:11:02;;;;;;;79.30;34.95;;;;;;;9.94;91.64;102324.34;5102954;27;20423;-57
2022/10/11 10:13:51;;;;;;;87.70;35.83;;;;;;;9.85;92.41;102319.72;5113534;27;20124;-56
2022/10/11 10:16:25;;;;;;;93.03;36.60;;;;;;;9.98;92.25;102322.31;5104938;28;20035;-56
2022/10/11 10:18:57;;;;;;;92.20;36.05;;;;;;;9.99;91.59;102331.97;5103692;28;20044;-57
2022/10/11 10:21:28;;;;;;;90.82;36.70;;;;;;;10.15;91.39;102326.38;5104190;28;20043;-58
2022/10/11 10:23:58;;;;;;;88.03;35.05;;;;;;;10.25;90.55;102326.56;5104525;28;20389;-58
2022/10/11 10:26:25;;;;;;;95.43;35.40;;;;;;;10.10;90.59;102318.78;5090356;28;20051;-57
2022/10/11 10:28:58;;;;;;;94.30;38.00;;;;;;;10.05;91.34;102328.03;5102840;28;20697;-58
2022/10/11 10:31:34;;;;;;;92.95;36.72;;;;;;;10.14;91.24;102325.53;5106402;28;20047;-58
2022/10/11 10:34:15;;;;;;;108.40;41.00;;;;;;;10.14;91.31;102328.19;5109263;28;20063;-57
2022/10/11 10:36:46;;;;;;;111.35;42.10;;;;;;;10.37;90.42;102321.22;5106079;28;20048;-58
2022/10/11 10:39:38;;;;;;;117.47;42.00;;;;;;;10.30;90.41;102316.47;5109190;28;20044;-57
2022/10/11 10:42:14;;;;;;;111.18;41.55;;;;;;;10.15;90.83;102323.72;5107087;28;20501;-57
2022/10/11 10:44:42;;;;;;;121.68;42.45;;;;;;;10.20;91.14;102318.94;5102715;28;20420;-57
2022/10/11 10:47:23;;;;;;;122.43;43.08;;;;;;;9.98;92.28;102315.19;5104089;28;20044;-57
2022/10/11 10:50:00;;;;;;;117.65;43.00;;;;;;;10.05;92.53;102320.06;5090561;28;20047;-57
2022/10/11 10:52:55;;;;;;;123.75;44.03;;;;;;;10.15;91.72;102313.13;5063743;28;20135;-57
2022/10/11 10:55:36;;;;;;;124.38;43.80;;;;;;;10.34;90.22;102310.84;5105265;28;20457;-57
2022/10/11 10:58:11;;;;;;;118.20;42.78;;;;;;;10.70;88.84;102306.38;5104706;28;20048;-57
2022/10/11 11:00:46;;;;;;;130.65;40.97;;;;;;;10.74;88.43;102307.84;5102885;28;20429;-57
2022/10/11 11:03:28;;;;;;;120.20;41.75;;;;;;;11.09;86.87;102308.75;5104305;27;20039;-57
2022/10/11 11:06:01;;;;;;;108.30;38.22;;;;;;;11.38;85.45;102313.59;5101956;28;20054;-57
2022/10/11 11:12:00;;;;;;;92.30;36.53;;;;;;;15.36;67.04;102310.09;5045695;27;20410;-51
2022/10/11 11:15:06;;;;;;;110.57;41.45;;;;;;;15.36;66.18;102318.97;5039170;28;20098;-57
2022/10/11 11:18:04;;;;;;;105.38;40.70;;;;;;;16.19;61.76;102311.88;5057049;28;20049;-57
2022/10/11 11:20:41;;;;;;;119.85;44.63;;;;;;;15.10;65.13;102305.44;5045090;28;20414;-57
2022/10/11 11:29:39;;;;;;;106.85;41.55;;;;;;;17.26;58.65;102295.63;5067393;28;20376;-57
2022/10/11 11:32:37;;;;;;;102.05;40.58;;;;;;;17.72;57.01;102300.66;5044745;28;20053;-57
2022/10/11 11:35:15;;;;;;;116.03;43.55;;;;;;;18.07;56.79;102301.41;5063870;28;20049;-56
2022/10/11 11:37:47;;;;;;;104.38;42.83;;;;;;;17.41;57.47;102295.84;5038701;28;20116;-56
2022/10/11 11:40:17;;;;;;;109.78;43.08;;;;;;;17.75;56.70;102296.78;5043926;28;20422;-56
2022/10/11 11:42:52;;;;;;;106.63;41.42;;;;;;;17.59;56.92;102282.31;5035687;28;20045;-56
2022/10/11 11:45:26;;;;;;;114.78;43.53;;;;;;;17.75;56.25;102289.56;5044062;28;20034;-56
2022/10/11 11:48:00;;;;;;;100.13;41.08;;;;;;;18.23;55.38;102284.47;5041051;28;20043;-56
2022/10/11 11:50:33;;;;;;;91.05;38.10;;;;;;;17.29;56.07;102275.66;5052496;28;20128;-56
2022/10/11 11:53:06;;;;;;;95.65;36.75;;;;;;;17.15;57.10;102278.94;5013810;28;20143;-56
2022/10/11 11:58:47;;;;;;;95.78;37.70;;;;;;;16.49;58.30;102270.47;5037638;28;20923;-56
2022/10/11 12:01:25;;;;;;;95.90;35.97;;;;;;;16.94;59.50;102265.97;5028324;28;20073;-56
2022/10/11 12:04:02;;;;;;;91.57;35.47;;;;;;;16.62;58.75;102264.69;5024256;28;20041;-56
2022/10/11 12:06:32;;;;;;;83.00;33.78;;;;;;;16.81;58.53;102255.63;5039671;28;20035;-56
2022/10/11 12:09:21;;;;;;;89.43;36.25;;;;;;;17.15;56.83;102263.69;5037272;28;20064;-56
2022/10/11 12:12:06;;;;;;;70.38;25.92;;;;;;;17.31;55.40;102254.88;5042796;28;20049;-56
2022/10/11 12:14:36;;;;;;;71.93;26.63;;;;;;;17.36;54.06;102257.94;5008807;28;20053;-56
2022/10/11 12:17:22;;;;;;;65.32;25.73;;;;;;;17.78;53.04;102257.03;5025917;28;20490;-56
2022/10/11 12:20:13;;;;;;;76.95;29.33;;;;;;;17.93;52.88;102254.56;5033570;28;20044;-57
2022/10/11 12:22:52;;;;;;;68.47;26.42;;;;;;;17.82;52.66;102249.50;5015843;28;20487;-56
2022/10/11 12:28:38;;;;;;;47.78;17.58;;;;;;;18.08;50.47;102244.03;5102788;27;20405;-56
2022/10/11 12:31:20;;;;;;;38.58;9.88;;;;;;;17.86;48.84;102241.97;5078655;28;20094;-56
2022/10/11 12:33:51;;;;;;;43.42;12.07;;;;;;;18.09;47.69;102240.31;5104566;28;20047;-56
2022/10/11 12:36:40;;;;;;;58.75;14.52;;;;;;;18.59;47.42;102228.53;5082448;28;20047;-56
2022/10/11 12:42:16;;;;;;;38.53;9.70;;;;;;;18.66;45.47;102219.78;5072177;28;20386;-58
2022/10/11 12:48:16;;;;;;;39.85;14.25;;;;;;;18.22;46.83;102215.66;5149153;27;20186;-56
2022/10/11 12:59:00;;;;;;;36.30;12.00;;;;;;;18.47;45.25;102203.03;5105230;27;20358;-56
2022/10/11 13:01:33;;;;;;;34.55;10.93;;;;;;;18.15;44.96;102204.72;5089767;28;20079;-57
2022/10/11 13:04:10;;;;;;;37.72;10.43;;;;;;;18.40;44.11;102208.22;5080693;28;20049;-57
2022/10/11 13:06:47;;;;;;;43.80;11.93;;;;;;;18.90;43.72;102209.00;5072190;28;20145;-57
2022/10/11 13:09:39;;;;;;;37.05;11.02;;;;;;;19.71;42.96;102208.72;5096547;28;20401;-56
2022/10/11 13:12:16;;;;;;;29.77;10.30;;;;;;;20.55;40.60;102199.78;5080460;28;20068;-56